TAF KFLL
KFLL 090520Z 0906/1012 VRB04KT P6SM FEW020 SCT250 TEMPO 0908/0910 4SM BR SCT008 SCT020 SCT250 FM091600 13007KT P6SM SCT030 SCT250 FM100000 VRB04KT P6SM SCT030=
METAR KFLL
KFLL 090653Z 26003KT 10SM CLR 22/22 A3005 RMK AO2 SLP176 T02170217 ?
KFLL 090553Z 27003KT 10SM CLR 22/21 A3006 RMK AO2 SLP177 T02220211 10256 20222 58002 ?
KFLL 090453Z 24003KT 10SM CLR 22/21 A3006 RMK AO2 SLP179 T02220211 402890189 ?
KFLL 090353Z 23003KT 10SM CLR 23/21 A3007 RMK AO2 SLP182 T02280206 ?
KFLL 090253Z 25005KT 10SM CLR 24/21 A3006 RMK AO2 SLP179 T02390206 53014 ?
WC KFLL
WS KFLL
WV KFLL